Time;durP1;ratioP1;P1;durP2;ratioP2;P2;SDS_P1;SDS_P2;PMS_P1;PMS_P2;Temp;Humidity;BMP_temperature;BMP_pressure;BME280_temperature;BME280_humidity;BME280_pressure;Samples;Min_cycle;Max_cycle;Signal;HPM_P1;HPM_P2
2023/01/10 00:02:01;0.00;0.00;0.62;0.00;0.00;0.62;1.93;1.07;;;23.40;27.80;;;;;;2251955;61;20814;-62
2023/01/10 00:04:46;0.00;0.00;0.62;0.00;0.00;0.62;1.90;1.10;;;23.40;27.80;;;;;;2252989;61;20421;-63
2023/01/10 00:07:32;0.00;0.00;0.62;0.00;0.00;0.62;1.90;1.20;;;23.40;27.80;;;;;;2252471;61;20387;-63
2023/01/10 00:10:17;0.00;0.00;0.62;0.00;0.00;0.62;2.37;0.90;;;23.40;27.80;;;;;;2252310;61;20390;-62
2023/01/10 00:16:08;0.00;0.00;0.62;0.00;0.00;0.62;2.60;1.20;;;23.40;27.80;;;;;;2252150;61;20385;-62
2023/01/10 00:18:53;0.00;0.00;0.62;0.00;0.00;0.62;2.10;1.37;;;23.40;27.80;;;;;;2252341;61;20398;-59
2023/01/10 00:21:38;0.00;0.00;0.62;0.00;0.00;0.62;2.70;1.60;;;23.40;27.70;;;;;;2252954;61;20383;-61
2023/01/10 00:24:24;0.00;0.00;0.62;0.00;0.00;0.62;2.57;1.80;;;23.30;27.60;;;;;;2251756;61;20367;-58
2023/01/10 00:27:11;0.00;0.00;0.62;0.00;0.00;0.62;2.10;1.47;;;23.30;27.50;;;;;;2252719;61;20382;-61
2023/01/10 00:29:59;0.00;0.00;0.62;0.00;0.00;0.62;3.43;1.80;;;23.30;27.50;;;;;;2252427;61;20454;-62
2023/01/10 00:32:45;0.00;0.00;0.62;0.00;0.00;0.62;4.10;2.30;;;23.20;27.40;;;;;;2252335;61;20406;-60
2023/01/10 00:35:29;0.00;0.00;0.62;0.00;0.00;0.62;5.30;2.10;;;23.20;27.30;;;;;;2252806;61;20402;-59
2023/01/10 00:38:14;0.00;0.00;0.62;0.00;0.00;0.62;4.07;2.73;;;23.20;27.20;;;;;;2251779;61;20417;-60
2023/01/10 00:41:00;0.00;0.00;0.62;0.00;0.00;0.62;2.87;2.20;;;23.10;27.10;;;;;;2252406;61;20360;-60
2023/01/10 00:43:58;0.00;0.00;0.62;0.00;0.00;0.62;4.30;2.40;;;23.10;27.00;;;;;;2252603;61;20379;-60
2023/01/10 00:46:42;0.00;0.00;0.62;0.00;0.00;0.62;4.00;2.70;;;23.00;26.90;;;;;;2251730;61;20367;-62
2023/01/10 00:49:27;0.00;0.00;0.62;0.00;0.00;0.62;4.27;2.50;;;23.00;26.80;;;;;;2252964;61;20377;-60
2023/01/10 00:52:12;0.00;0.00;0.62;0.00;0.00;0.62;4.70;2.50;;;22.90;26.80;;;;;;2252156;61;20387;-62
2023/01/10 00:54:57;0.00;0.00;0.62;0.00;0.00;0.62;3.07;2.70;;;22.90;26.80;;;;;;2252634;61;20966;-59
2023/01/10 00:57:43;0.00;0.00;0.62;0.00;0.00;0.62;3.50;2.70;;;22.80;26.80;;;;;;2251889;61;20502;-61
2023/01/10 01:00:27;0.00;0.00;0.62;0.00;0.00;0.62;4.20;2.30;;;22.80;26.80;;;;;;2251968;61;20363;-59
2023/01/10 01:03:12;0.00;0.00;0.62;0.00;0.00;0.62;2.30;1.70;;;22.70;26.70;;;;;;2252186;61;20447;-59
2023/01/10 01:06:03;0.00;0.00;0.62;0.00;0.00;0.62;2.90;2.20;;;22.70;26.80;;;;;;2252583;61;20776;-59
2023/01/10 01:08:47;0.00;0.00;0.62;0.00;0.00;0.62;4.70;2.13;;;22.70;26.80;;;;;;2251814;61;20451;-59
2023/01/10 01:11:32;0.00;0.00;0.62;0.00;0.00;0.62;6.83;2.63;;;22.60;26.80;;;;;;2252761;61;20816;-58
2023/01/10 01:14:18;0.00;0.00;0.62;0.00;0.00;0.62;3.27;2.53;;;22.60;26.80;;;;;;2252490;61;20891;-60
2023/01/10 01:17:02;0.00;0.00;0.62;0.00;0.00;0.62;2.60;2.30;;;22.60;27.30;;;;;;2252489;61;20433;-59
2023/01/10 01:19:47;0.00;0.00;0.62;0.00;0.00;0.62;3.27;2.50;;;22.60;26.80;;;;;;2252441;61;20378;-61
2023/01/10 01:22:32;0.00;0.00;0.62;0.00;0.00;0.62;3.77;2.57;;;22.50;26.70;;;;;;2251930;61;20379;-61
2023/01/10 01:25:17;0.00;0.00;0.62;0.00;0.00;0.62;2.37;2.10;;;22.50;26.70;;;;;;2252209;61;20823;-58
2023/01/10 01:28:02;0.00;0.00;0.62;0.00;0.00;0.62;5.20;3.23;;;22.40;26.60;;;;;;2252349;61;20461;-59
2023/01/10 01:30:49;0.00;0.00;0.62;0.00;0.00;0.62;3.57;2.33;;;22.40;27.10;;;;;;2252067;61;20383;-58
2023/01/10 01:33:34;0.00;0.00;0.62;0.00;0.00;0.62;2.97;2.60;;;22.40;26.60;;;;;;2252444;61;20363;-60
2023/01/10 01:36:19;0.00;0.00;0.62;0.00;0.00;0.62;4.27;2.53;;;22.30;26.50;;;;;;2252468;61;20362;-55
2023/01/10 01:39:05;0.00;0.00;0.62;0.00;0.00;0.62;4.73;2.83;;;22.30;26.50;;;;;;2252293;61;20802;-59
2023/01/10 01:41:55;0.00;0.00;0.62;0.00;0.00;0.62;3.30;2.60;;;22.30;26.50;;;;;;2252500;61;20942;-59
2023/01/10 01:44:41;0.00;0.00;0.62;0.00;0.00;0.62;4.30;3.07;;;22.20;26.40;;;;;;2251935;61;20405;-59
2023/01/10 01:47:27;0.00;0.00;0.62;0.00;0.00;0.62;4.57;2.37;;;22.20;26.50;;;;;;2251805;61;21030;-56
2023/01/10 01:50:15;0.00;0.00;0.62;0.00;0.00;0.62;4.97;2.83;;;22.10;26.50;;;;;;2252407;61;20390;-59
2023/01/10 01:53:06;0.00;0.00;0.62;0.00;0.00;0.62;5.30;2.70;;;22.10;26.50;;;;;;2251903;61;20383;-58
2023/01/10 01:55:54;0.00;0.00;0.62;0.00;0.00;0.62;3.63;2.53;;;22.10;26.50;;;;;;2252368;61;20487;-58
2023/01/10 01:58:45;0.00;0.00;0.62;0.00;0.00;0.62;3.40;2.70;;;22.00;26.50;;;;;;2252275;61;20371;-59
2023/01/10 02:01:32;0.00;0.00;0.62;0.00;0.00;0.62;3.87;2.93;;;22.00;26.50;;;;;;2252431;61;20382;-58
2023/01/10 02:04:22;0.00;0.00;0.62;0.00;0.00;0.62;4.60;2.70;;;22.00;26.50;;;;;;2252305;61;20786;-61
2023/01/10 02:07:09;0.00;0.00;0.62;0.00;0.00;0.62;3.90;2.93;;;21.90;26.50;;;;;;2251917;61;20363;-58
2023/01/10 02:09:59;0.00;0.00;0.62;0.00;0.00;0.62;4.80;2.60;;;21.90;26.50;;;;;;2251814;61;20355;-61
2023/01/10 02:12:46;0.00;0.00;0.62;0.00;0.00;0.62;3.73;2.03;;;21.90;26.60;;;;;;2252578;61;20510;-57
2023/01/10 02:15:31;0.00;0.00;0.62;0.00;0.00;0.62;3.07;2.40;;;21.80;26.50;;;;;;2251783;61;20417;-58
2023/01/10 02:18:16;0.00;0.00;0.62;0.00;0.00;0.62;3.87;2.93;;;21.80;26.50;;;;;;2252178;61;20363;-60
2023/01/10 02:22:25;0.00;0.00;0.62;0.00;0.00;0.62;3.43;2.80;;;21.80;26.60;;;;;;2251752;61;20381;-59
2023/01/10 02:25:53;0.00;0.00;0.62;0.00;0.00;0.62;3.50;3.10;;;21.70;26.50;;;;;;2251973;61;20379;-56
2023/01/10 02:29:13;0.00;0.00;0.62;0.00;0.00;0.62;3.00;2.50;;;21.70;26.60;;;;;;2251533;61;20833;-57
2023/01/10 02:32:23;0.00;0.00;0.62;0.00;0.00;0.62;3.17;2.37;;;21.60;26.50;;;;;;2251911;61;20398;-58
2023/01/10 02:35:33;0.00;0.00;0.62;0.00;0.00;0.62;3.40;2.23;;;21.60;26.70;;;;;;2252381;61;20494;-59
2023/01/10 02:38:31;0.00;0.00;0.62;0.00;0.00;0.62;2.87;2.60;;;21.60;26.70;;;;;;2251846;61;21003;-61
2023/01/10 02:41:27;0.00;0.00;0.62;0.00;0.00;0.62;4.50;2.73;;;21.50;26.70;;;;;;2252303;61;20374;-56
2023/01/10 02:44:18;0.00;0.00;0.62;0.00;0.00;0.62;2.70;2.23;;;21.50;26.80;;;;;;2251610;61;20391;-58
2023/01/10 02:47:03;0.00;0.00;0.62;0.00;0.00;0.62;4.00;2.60;;;21.50;26.80;;;;;;2251683;61;20367;-57
2023/01/10 02:49:51;0.00;0.00;0.62;0.00;0.00;0.62;3.80;2.23;;;21.50;26.90;;;;;;2252455;61;20413;-58
2023/01/10 02:52:36;0.00;0.00;0.62;0.00;0.00;0.62;3.13;2.00;;;21.50;26.90;;;;;;2251602;61;20453;-61
2023/01/10 02:55:25;0.00;0.00;0.62;0.00;0.00;0.62;4.07;2.10;;;21.40;26.80;;;;;;2253057;61;20447;-59
2023/01/10 02:58:25;0.00;0.00;0.62;0.00;0.00;0.62;2.90;2.20;;;21.40;26.80;;;;;;2252246;61;20445;-59
2023/01/10 03:01:20;0.00;0.00;0.62;0.00;0.00;0.62;5.00;2.10;;;21.40;26.90;;;;;;2252679;61;20366;-58
2023/01/10 03:04:15;0.00;0.00;0.62;0.00;0.00;0.62;2.50;1.77;;;21.40;26.90;;;;;;2252940;61;20438;-60
2023/01/10 03:07:17;0.00;0.00;0.62;0.00;0.00;0.62;2.57;1.70;;;21.40;26.90;;;;;;2252152;61;20875;-56
2023/01/10 03:10:06;0.00;0.00;0.62;0.00;0.00;0.62;2.40;1.87;;;21.40;26.90;;;;;;2252890;61;20362;-60
2023/01/10 03:12:57;0.00;0.00;0.62;0.00;0.00;0.62;3.93;1.70;;;21.30;26.80;;;;;;2252550;61;20832;-64
2023/01/10 03:15:43;0.00;0.00;0.62;0.00;0.00;0.62;4.47;2.37;;;21.30;26.90;;;;;;2252554;61;21008;-59
2023/01/10 03:18:37;0.00;0.00;0.62;0.00;0.00;0.62;3.83;2.00;;;21.30;26.90;;;;;;2252894;61;20363;-57
2023/01/10 03:21:23;0.00;0.00;0.62;0.00;0.00;0.62;4.67;2.37;;;21.30;26.90;;;;;;2252183;61;20938;-58
2023/01/10 03:24:16;0.00;0.00;0.62;0.00;0.00;0.62;3.30;1.93;;;21.20;26.90;;;;;;2252702;61;20873;-60
2023/01/10 03:27:09;0.00;0.00;0.62;0.00;0.00;0.62;4.33;2.03;;;21.20;26.90;;;;;;2252820;61;20398;-60
2023/01/10 03:30:01;0.00;0.00;0.62;0.00;0.00;0.62;3.40;1.97;;;21.20;26.90;;;;;;2252118;61;20805;-59
2023/01/10 03:32:47;0.00;0.00;0.62;0.00;0.00;0.62;2.50;1.37;;;21.20;27.00;;;;;;2252706;61;20938;-59
2023/01/10 03:35:44;0.00;0.00;0.62;0.00;0.00;0.62;3.13;1.60;;;21.20;27.00;;;;;;2252022;61;20421;-59
2023/01/10 03:38:40;0.00;0.00;0.62;0.00;0.00;0.62;4.03;1.70;;;21.10;27.00;;;;;;2252144;61;20363;-60
2023/01/10 03:41:36;0.00;0.00;0.62;0.00;0.00;0.62;2.63;1.60;;;21.10;27.00;;;;;;2252705;61;20425;-59
2023/01/10 03:44:43;0.00;0.00;0.62;0.00;0.00;0.62;3.83;1.33;;;21.10;27.00;;;;;;2251754;61;20421;-63
2023/01/10 03:47:36;0.00;0.00;0.62;0.00;0.00;0.62;2.57;1.47;;;21.10;27.10;;;;;;2252310;61;20367;-59
2023/01/10 03:50:24;0.00;0.00;0.62;0.00;0.00;0.62;3.90;1.60;;;21.10;27.10;;;;;;2251914;61;20521;-62
2023/01/10 03:53:10;0.00;0.00;0.62;0.00;0.00;0.62;3.57;1.83;;;21.00;27.10;;;;;;2252329;61;20520;-58
2023/01/10 03:55:55;0.00;0.00;0.62;0.00;0.00;0.62;4.67;1.50;;;21.00;27.10;;;;;;2252527;61;20368;-59
2023/01/10 03:58:41;0.00;0.00;0.62;0.00;0.00;0.62;2.70;1.20;;;21.00;27.10;;;;;;2251829;61;20397;-56
2023/01/10 04:01:26;0.00;0.00;0.62;0.00;0.00;0.62;4.20;1.70;;;21.00;27.10;;;;;;2252421;61;20386;-61
2023/01/10 04:04:10;0.00;0.00;0.62;0.00;0.00;0.62;3.33;1.60;;;21.00;27.10;;;;;;2252628;61;20486;-58
2023/01/10 04:06:55;0.00;0.00;0.62;0.00;0.00;0.62;2.63;1.57;;;20.90;27.10;;;;;;2251651;61;20370;-60
2023/01/10 04:09:40;0.00;0.00;0.62;0.00;0.00;0.62;5.20;1.57;;;20.90;27.10;;;;;;2252661;61;20410;-57
2023/01/10 04:12:25;0.00;0.00;0.62;0.00;0.00;0.62;4.80;2.03;;;20.90;27.00;;;;;;2251987;61;20383;-58
2023/01/10 04:15:12;0.00;0.00;0.62;0.00;0.00;0.62;6.07;2.07;;;20.90;27.00;;;;;;2252299;61;20505;-58
2023/01/10 04:17:57;0.00;0.00;0.62;0.00;0.00;0.62;3.40;1.60;;;20.80;26.90;;;;;;2252335;61;20371;-61
2023/01/10 04:20:41;0.00;0.00;0.62;0.00;0.00;0.62;3.53;2.00;;;20.80;27.00;;;;;;2251869;61;20390;-58
2023/01/10 04:23:26;0.00;0.00;0.62;0.00;0.00;0.62;4.73;1.67;;;20.80;27.10;;;;;;2252052;61;20359;-59
2023/01/10 04:26:10;0.00;0.00;0.62;0.00;0.00;0.62;3.50;2.37;;;20.80;27.20;;;;;;2252228;61;20775;-58
2023/01/10 04:28:55;0.00;0.00;0.62;0.00;0.00;0.62;4.90;1.70;;;20.80;27.20;;;;;;2251401;61;20778;-58
2023/01/10 04:31:41;0.00;0.00;0.62;0.00;0.00;0.62;2.97;1.60;;;20.80;27.20;;;;;;2234149;61;1134996;-59
2023/01/10 04:34:26;0.00;0.00;0.62;0.00;0.00;0.62;4.33;1.80;;;20.70;27.10;;;;;;2251874;61;20375;-57
2023/01/10 04:37:10;0.00;0.00;0.62;0.00;0.00;0.62;3.10;1.60;;;20.70;27.10;;;;;;2251590;61;20852;-59
2023/01/10 04:39:55;0.00;0.00;0.62;0.00;0.00;0.62;2.97;1.40;;;20.70;27.10;;;;;;2252813;61;20818;-60
2023/01/10 04:42:39;0.00;0.00;0.62;0.00;0.00;0.62;3.43;1.33;;;20.70;27.10;;;;;;2251830;61;20379;-59
2023/01/10 04:45:24;0.00;0.00;0.62;0.00;0.00;0.62;3.70;1.87;;;20.70;27.10;;;;;;2252293;61;20443;-62
2023/01/10 04:48:10;0.00;0.00;0.62;0.00;0.00;0.62;4.20;1.90;;;20.70;27.10;;;;;;2252070;61;21003;-62
2023/01/10 04:50:55;0.00;0.00;0.62;0.00;0.00;0.62;3.90;1.93;;;20.70;27.10;;;;;;2251576;61;20394;-61
2023/01/10 04:53:40;0.00;0.00;0.62;0.00;0.00;0.62;4.93;1.93;;;20.70;27.10;;;;;;2252733;61;20426;-63
2023/01/10 04:56:25;0.00;0.00;0.62;0.00;0.00;0.62;4.90;2.03;;;20.60;27.00;;;;;;2251917;61;20814;-62
2023/01/10 04:59:10;0.00;0.00;0.62;0.00;0.00;0.62;4.37;2.00;;;20.60;27.00;;;;;;2252382;61;20359;-63
2023/01/10 05:01:56;0.00;0.00;0.62;0.00;0.00;0.62;3.77;1.87;;;20.60;27.00;;;;;;2252698;61;20382;-59
2023/01/10 05:04:42;0.00;0.00;0.62;0.00;0.00;0.62;3.23;1.80;;;20.70;27.10;;;;;;2251894;61;20913;-63
2023/01/10 05:07:26;0.00;0.00;0.62;0.00;0.00;0.62;4.13;2.10;;;20.60;27.00;;;;;;2252342;61;20419;-63
2023/01/10 05:10:11;0.00;0.00;0.62;0.00;0.00;0.62;4.43;1.90;;;20.60;27.00;;;;;;2252581;61;20398;-65
2023/01/10 05:12:56;0.00;0.00;0.62;0.00;0.00;0.62;2.30;1.73;;;20.60;27.00;;;;;;2252104;61;20794;-59
2023/01/10 05:15:40;0.00;0.00;0.62;0.00;0.00;0.62;3.77;1.67;;;20.60;27.00;;;;;;2252964;61;20801;-62
2023/01/10 05:18:26;0.00;0.00;0.62;0.00;0.00;0.62;4.87;1.97;;;20.60;27.00;;;;;;2251971;61;20382;-64
2023/01/10 05:21:13;0.00;0.00;0.62;0.00;0.00;0.62;3.90;1.70;;;20.60;27.00;;;;;;2252370;61;20443;-64
2023/01/10 05:23:57;0.00;0.00;0.62;0.00;0.00;0.62;2.20;1.33;;;20.50;26.90;;;;;;2251905;61;20451;-64
2023/01/10 05:26:42;0.00;0.00;0.62;0.00;0.00;0.62;4.73;1.93;;;20.60;27.00;;;;;;2251456;61;20421;-63
2023/01/10 05:29:27;0.00;0.00;0.62;0.00;0.00;0.62;4.03;2.00;;;20.50;27.50;;;;;;2252480;61;20852;-63
2023/01/10 05:32:12;0.00;0.00;0.62;0.00;0.00;0.62;5.00;1.90;;;20.50;26.90;;;;;;2252410;61;20487;-63
2023/01/10 05:34:56;0.00;0.00;0.62;0.00;0.00;0.62;11.03;1.80;;;20.50;26.90;;;;;;2251573;61;20363;-64
2023/01/10 05:37:42;0.00;0.00;0.62;0.00;0.00;0.62;5.03;2.30;;;20.50;27.10;;;;;;2252383;61;20379;-64
2023/01/10 05:40:27;0.00;0.00;0.62;0.00;0.00;0.62;5.60;2.40;;;20.40;26.90;;;;;;2252803;61;20367;-64
2023/01/10 05:43:12;0.00;0.00;0.62;0.00;0.00;0.62;4.60;1.60;;;20.40;26.90;;;;;;2252175;61;20387;-64
2023/01/10 05:45:57;0.00;0.00;0.62;0.00;0.00;0.62;4.67;2.37;;;20.50;26.90;;;;;;2252792;61;20363;-64
2023/01/10 05:48:41;0.00;0.00;0.62;0.00;0.00;0.62;5.30;1.77;;;20.40;26.90;;;;;;2252033;61;20971;-64
2023/01/10 05:51:26;0.00;0.00;0.62;0.00;0.00;0.62;5.87;2.30;;;20.40;26.90;;;;;;2251943;61;20986;-64
2023/01/10 05:54:12;0.00;0.00;0.62;0.00;0.00;0.62;5.23;2.30;;;20.40;26.90;;;;;;2252659;61;20362;-62
2023/01/10 05:56:57;0.00;0.00;0.62;0.00;0.00;0.62;5.20;2.63;;;20.40;26.90;;;;;;2251756;61;20406;-60
2023/01/10 05:59:41;0.00;0.00;0.62;0.00;0.00;0.62;4.80;1.87;;;20.40;26.90;;;;;;2252553;61;20409;-58
2023/01/10 06:02:26;0.00;0.00;0.62;0.00;0.00;0.62;3.97;1.70;;;20.40;26.90;;;;;;2253913;61;20376;-57
2023/01/10 06:05:10;0.00;0.00;0.62;0.00;0.00;0.62;5.37;1.70;;;20.40;26.90;;;;;;2251626;61;20779;-61
2023/01/10 06:07:55;0.00;0.00;0.62;0.00;0.00;0.62;3.50;1.73;;;20.40;26.90;;;;;;2252067;61;20354;-63
2023/01/10 06:10:41;0.00;0.00;0.62;0.00;0.00;0.62;3.60;1.67;;;20.30;26.80;;;;;;2252036;61;20390;-63
2023/01/10 06:13:26;0.00;0.00;0.62;0.00;0.00;0.62;3.83;1.40;;;20.30;26.80;;;;;;2252020;61;20374;-64
2023/01/10 06:16:10;0.00;0.00;0.62;0.00;0.00;0.62;1.93;1.20;;;20.40;27.00;;;;;;2252797;61;20366;-63
2023/01/10 06:18:55;0.00;0.00;0.62;0.00;0.00;0.62;3.30;1.50;;;20.40;27.00;;;;;;2251855;61;20757;-63
2023/01/10 06:21:40;0.00;0.00;0.62;0.00;0.00;0.62;4.10;1.60;;;20.40;27.10;;;;;;2252204;61;20478;-61
2023/01/10 06:24:25;0.00;0.00;0.62;0.00;0.00;0.62;3.70;1.20;;;20.40;27.00;;;;;;2252358;61;20799;-60
2023/01/10 06:27:11;0.00;0.00;0.62;0.00;0.00;0.62;2.63;1.23;;;20.50;27.20;;;;;;2251143;61;20482;-59
2023/01/10 06:29:56;0.00;0.00;0.62;0.00;0.00;0.62;2.07;0.97;;;20.50;27.10;;;;;;2252327;61;20915;-55
2023/01/10 06:32:41;0.00;0.00;0.62;0.00;0.00;0.62;2.63;1.30;;;20.60;27.20;;;;;;2251693;61;20434;-58
2023/01/10 06:35:25;0.00;0.00;0.62;0.00;0.00;0.62;2.97;1.63;;;20.60;27.20;;;;;;2251789;61;20355;-58
2023/01/10 06:38:10;0.00;0.00;0.62;0.00;0.00;0.62;2.27;1.20;;;20.60;27.10;;;;;;2252204;61;20398;-58
2023/01/10 06:40:54;0.00;0.00;0.62;0.00;0.00;0.62;2.63;1.00;;;20.70;27.10;;;;;;2251661;61;20383;-57
2023/01/10 06:43:41;0.00;0.00;0.62;0.00;0.00;0.62;1.90;0.97;;;20.70;27.10;;;;;;2251687;61;20394;-60
2023/01/10 06:46:26;0.00;0.00;0.62;0.00;0.00;0.62;2.30;0.87;;;20.70;27.10;;;;;;2251830;61;20907;-60
2023/01/10 06:49:11;0.00;0.00;0.62;0.00;0.00;0.62;1.60;0.90;;;20.80;27.20;;;;;;2251499;61;20366;-59
2023/01/10 06:51:55;0.00;0.00;0.62;0.00;0.00;0.62;1.80;1.10;;;20.80;27.20;;;;;;2251922;61;20437;-66
2023/01/10 06:54:40;0.00;0.00;0.62;0.00;0.00;0.62;2.87;1.17;;;20.80;27.20;;;;;;2252199;61;20359;-59
2023/01/10 06:57:27;0.00;0.00;0.62;0.00;0.00;0.62;2.27;1.37;;;20.90;27.30;;;;;;2251383;61;20366;-57
2023/01/10 07:00:15;0.00;0.00;0.62;0.00;0.00;0.62;2.83;1.37;;;20.90;27.20;;;;;;2252233;61;20365;-59
2023/01/10 07:03:01;0.00;0.00;0.62;0.00;0.00;0.62;1.80;1.03;;;20.90;27.20;;;;;;2251385;61;20922;-57
2023/01/10 07:05:46;0.00;0.00;0.62;0.00;0.00;0.62;3.07;1.20;;;21.00;27.30;;;;;;2251744;61;20359;-55
2023/01/10 07:08:30;0.00;0.00;0.62;0.00;0.00;0.62;1.87;1.03;;;21.00;27.30;;;;;;2251812;61;20366;-59
2023/01/10 07:11:16;0.00;0.00;0.62;0.00;0.00;0.62;3.33;1.50;;;21.00;27.30;;;;;;2251365;61;20389;-59
2023/01/10 07:14:02;0.00;0.00;0.62;0.00;0.00;0.62;1.97;0.97;;;21.00;27.30;;;;;;2252476;61;20363;-60
2023/01/10 07:16:48;0.00;0.00;0.62;0.00;0.00;0.62;2.30;1.17;;;21.00;27.30;;;;;;2251994;61;20367;-59
2023/01/10 07:19:33;0.00;0.00;0.62;0.00;0.00;0.62;2.73;1.07;;;21.10;27.40;;;;;;2251628;61;20529;-59
2023/01/10 07:22:17;0.00;0.00;0.62;0.00;0.00;0.62;2.63;1.33;;;21.10;27.40;;;;;;2252440;61;20379;-58
2023/01/10 07:25:03;0.00;0.00;0.62;0.00;0.00;0.62;1.73;1.13;;;21.10;27.30;;;;;;2250565;61;20428;-57
2023/01/10 07:27:47;0.00;0.00;0.62;0.00;0.00;0.62;2.07;1.20;;;21.10;27.30;;;;;;2251811;61;20867;-59
2023/01/10 07:30:32;0.00;0.00;0.62;0.00;0.00;0.62;2.37;1.00;;;21.20;27.30;;;;;;2252310;61;20766;-57
2023/01/10 07:33:18;0.00;0.00;0.62;0.00;0.00;0.62;2.67;1.43;;;21.20;27.30;;;;;;2251343;61;20490;-58
2023/01/10 07:36:04;0.00;0.00;0.62;0.00;0.00;0.62;2.03;0.90;;;21.20;27.30;;;;;;2251867;61;20591;-57
2023/01/10 07:38:48;0.00;0.00;0.62;0.00;0.00;0.62;2.37;0.80;;;21.20;27.20;;;;;;2252216;61;20362;-54
2023/01/10 07:41:33;0.00;0.00;0.62;0.00;0.00;0.62;2.33;1.10;;;21.20;27.20;;;;;;2251871;61;20513;-59
2023/01/10 07:44:21;0.00;0.00;0.62;0.00;0.00;0.62;2.00;1.00;;;21.20;27.20;;;;;;2252431;61;20410;-57
2023/01/10 07:47:06;0.00;0.00;0.62;0.00;0.00;0.62;2.00;1.30;;;21.20;27.20;;;;;;2251638;61;20449;-59
2023/01/10 07:49:52;0.00;0.00;0.62;0.00;0.00;0.62;2.07;0.90;;;21.20;27.10;;;;;;2252526;61;20378;-57
2023/01/10 07:52:37;0.00;0.00;0.62;0.00;0.00;0.62;1.90;1.10;;;21.30;27.20;;;;;;2252625;61;20874;-59
2023/01/10 07:55:21;0.00;0.00;0.62;0.00;0.00;0.62;3.13;1.27;;;21.30;27.20;;;;;;2251485;61;20992;-60
2023/01/10 07:58:07;0.00;0.00;0.62;0.00;0.00;0.62;2.10;0.87;;;21.30;27.10;;;;;;2251795;61;20452;-58
2023/01/10 08:00:55;0.00;0.00;0.62;0.00;0.00;0.62;2.00;1.13;;;21.30;27.10;;;;;;2252710;61;20387;-60
2023/01/10 08:03:40;0.00;0.00;0.62;0.00;0.00;0.62;1.50;0.80;;;21.30;27.10;;;;;;2251581;61;20378;-59
2023/01/10 08:06:26;0.00;0.00;0.62;0.00;0.00;0.62;3.90;1.27;;;21.40;27.20;;;;;;2252759;61;20394;-58
2023/01/10 08:09:11;0.00;0.00;0.62;0.00;0.00;0.62;2.20;1.20;;;21.30;27.10;;;;;;2252041;61;20402;-59
2023/01/10 08:11:55;0.00;0.00;0.62;0.00;0.00;0.62;2.93;1.43;;;21.30;27.10;;;;;;2252548;61;20418;-57
2023/01/10 08:14:40;0.00;0.00;0.62;0.00;0.00;0.62;1.90;0.93;;;21.30;27.60;;;;;;2252765;61;20367;-57
2023/01/10 08:17:24;0.00;0.00;0.62;0.00;0.00;0.62;2.00;1.13;;;21.40;27.10;;;;;;2251685;61;20457;-59
2023/01/10 08:20:11;0.00;0.00;0.62;0.00;0.00;0.62;1.80;0.87;;;21.40;27.10;;;;;;2252592;61;20402;-59
2023/01/10 08:22:58;0.00;0.00;0.62;0.00;0.00;0.62;2.03;1.03;;;21.40;27.10;;;;;;2252777;61;20383;-59
2023/01/10 08:25:43;0.00;0.00;0.62;0.00;0.00;0.62;1.93;1.00;;;21.40;27.10;;;;;;2252472;61;20421;-55
2023/01/10 08:28:28;0.00;0.00;0.62;0.00;0.00;0.62;1.50;0.90;;;21.40;27.00;;;;;;2254135;61;20386;-55
2023/01/10 08:31:13;0.00;0.00;0.62;0.00;0.00;0.62;2.30;1.00;;;21.40;27.60;;;;;;2253499;61;20386;-59
2023/01/10 08:33:57;0.00;0.00;0.62;0.00;0.00;0.62;1.80;0.80;;;21.50;27.10;;;;;;2253530;61;20382;-57
2023/01/10 08:36:42;0.00;0.00;0.62;0.00;0.00;0.62;2.17;1.10;;;21.50;27.10;;;;;;2253955;61;20359;-58
2023/01/10 08:39:33;0.00;0.00;0.62;0.00;0.00;0.62;1.77;1.10;;;21.50;27.10;;;;;;2253191;61;20954;-59
2023/01/10 08:42:18;0.00;0.00;0.62;0.00;0.00;0.62;2.07;1.00;;;21.50;27.00;;;;;;2253824;61;20479;-58
2023/01/10 08:45:04;0.00;0.00;0.62;0.00;0.00;0.62;2.07;1.07;;;21.50;27.00;;;;;;2254056;61;20843;-56
2023/01/10 08:47:48;0.00;0.00;0.62;0.00;0.00;0.62;1.63;0.97;;;21.50;27.00;;;;;;2253314;61;20367;-58
2023/01/10 08:50:33;0.00;0.00;0.62;0.00;0.00;0.62;1.80;0.93;;;21.50;27.00;;;;;;2253082;61;20461;-58
2023/01/10 08:53:17;0.00;0.00;0.62;0.00;0.00;0.62;1.67;0.80;;;21.50;27.00;;;;;;2253504;61;20792;-60
2023/01/10 08:56:04;0.00;0.00;0.62;0.00;0.00;0.62;2.00;1.10;;;21.50;27.00;;;;;;2253582;61;20816;-59
2023/01/10 08:58:50;0.00;0.00;0.62;0.00;0.00;0.62;1.50;0.80;;;21.50;27.00;;;;;;2253842;61;20436;-54
2023/01/10 09:01:35;0.00;0.00;0.62;0.00;0.00;0.62;1.40;0.80;;;21.50;27.00;;;;;;2253738;61;20471;-56
2023/01/10 09:04:20;0.00;0.00;0.62;0.00;0.00;0.62;1.90;0.80;;;21.50;27.00;;;;;;2253781;61;20367;-58
2023/01/10 09:07:04;0.00;0.00;0.62;0.00;0.00;0.62;2.53;1.20;;;21.60;27.00;;;;;;2254225;61;20371;-58
2023/01/10 09:09:49;0.00;0.00;0.62;0.00;0.00;0.62;1.77;1.00;;;21.60;27.00;;;;;;2253768;61;20447;-57
2023/01/10 09:12:53;0.00;0.00;0.62;0.00;0.00;0.62;1.57;0.90;;;21.60;27.00;;;;;;2253469;61;20422;-59
2023/01/10 09:15:38;0.00;0.00;0.62;0.00;0.00;0.62;1.97;1.00;;;21.60;27.00;;;;;;2253401;61;20394;-59
2023/01/10 09:18:24;0.00;0.00;0.62;0.00;0.00;0.62;2.10;0.80;;;21.60;27.00;;;;;;2253175;61;20410;-58
2023/01/10 09:21:09;0.00;0.00;0.62;0.00;0.00;0.62;1.70;0.90;;;21.60;27.00;;;;;;2253589;61;20883;-55
2023/01/10 09:23:53;0.00;0.00;0.62;0.00;0.00;0.62;2.00;1.00;;;21.60;27.00;;;;;;2253691;61;20390;-57
2023/01/10 09:26:38;0.00;0.00;0.62;0.00;0.00;0.62;1.43;0.90;;;21.60;27.00;;;;;;2253392;61;20371;-58
2023/01/10 09:29:24;0.00;0.00;0.62;0.00;0.00;0.62;3.03;1.10;;;21.60;27.00;;;;;;2253841;61;20401;-56
2023/01/10 09:32:09;0.00;0.00;0.62;0.00;0.00;0.62;1.93;1.00;;;21.60;26.90;;;;;;2252606;61;20483;-58
2023/01/10 09:34:54;0.00;0.00;0.62;0.00;0.00;0.62;2.80;1.13;;;21.60;26.90;;;;;;2253359;61;20954;-58
2023/01/10 09:37:38;0.00;0.00;0.62;0.00;0.00;0.62;1.87;1.00;;;21.60;26.90;;;;;;2253810;61;20894;-57
2023/01/10 09:40:38;0.00;0.00;0.62;0.00;0.00;0.62;2.27;1.10;;;21.60;26.90;;;;;;2253488;61;20447;-57
2023/01/10 09:43:35;0.00;0.00;0.62;0.00;0.00;0.62;1.80;1.00;;;21.60;26.90;;;;;;2253503;61;20382;-57
2023/01/10 09:46:29;0.00;0.00;0.62;0.00;0.00;0.62;2.00;1.17;;;21.70;27.00;;;;;;2253568;61;20410;-57
2023/01/10 09:49:25;0.00;0.00;0.62;0.00;0.00;0.62;1.70;0.83;;;21.70;27.00;;;;;;2253712;61;20379;-57
2023/01/10 09:52:22;0.00;0.00;0.62;0.00;0.00;0.62;3.17;0.93;;;21.70;27.00;;;;;;2253623;61;20391;-57
2023/01/10 09:55:20;0.00;0.00;0.62;0.00;0.00;0.62;1.77;0.90;;;21.70;27.00;;;;;;2253659;61;20367;-58
2023/01/10 09:58:11;0.00;0.00;0.62;0.00;0.00;0.62;1.83;1.10;;;21.70;26.90;;;;;;2253168;61;20358;-56
2023/01/10 10:00:59;0.00;0.00;0.62;0.00;0.00;0.62;2.60;1.00;;;21.70;27.00;;;;;;2253294;61;20863;-57
2023/01/10 10:03:53;0.00;0.00;0.62;0.00;0.00;0.62;2.07;0.90;;;21.70;26.90;;;;;;2253569;61;20822;-56
2023/01/10 10:06:38;0.00;0.00;0.62;0.00;0.00;0.62;1.63;1.00;;;21.70;26.90;;;;;;2253485;61;20366;-57
2023/01/10 10:09:24;0.00;0.00;0.62;0.00;0.00;0.62;2.23;1.30;;;21.70;26.90;;;;;;2252837;61;20359;-56
2023/01/10 10:12:25;0.00;0.00;0.62;0.00;0.00;0.62;2.73;1.30;;;21.70;26.90;;;;;;2253797;61;20394;-59
2023/01/10 10:15:23;0.00;0.00;0.62;0.00;0.00;0.62;1.70;1.13;;;21.70;26.90;;;;;;2253597;61;20421;-59
2023/01/10 10:18:21;0.00;0.00;0.62;0.00;0.00;0.62;2.73;1.10;;;21.70;26.90;;;;;;2253292;61;20454;-55
2023/01/10 10:21:16;0.00;0.00;0.62;0.00;0.00;0.62;2.70;1.10;;;21.70;26.90;;;;;;2253819;61;20382;-58
2023/01/10 10:24:24;0.00;0.00;0.62;0.00;0.00;0.62;1.73;1.13;;;21.70;26.90;;;;;;2252736;61;20853;-53
2023/01/10 10:27:20;0.00;0.00;0.62;0.00;0.00;0.62;3.00;1.30;;;21.80;27.00;;;;;;2253714;61;20383;-58
2023/01/10 10:30:23;0.00;0.00;0.62;0.00;0.00;0.62;2.50;1.37;;;21.80;27.00;;;;;;2253055;61;20370;-58
2023/01/10 10:33:40;0.00;0.00;0.62;0.00;0.00;0.62;2.07;1.00;;;21.70;27.40;;;;;;2253210;61;20475;-56
2023/01/10 10:36:37;0.00;0.00;0.62;0.00;0.00;0.62;1.80;1.00;;;21.70;26.90;;;;;;2253947;61;20459;-56
2023/01/10 10:39:29;0.00;0.00;0.62;0.00;0.00;0.62;1.90;1.07;;;21.80;27.00;;;;;;2253320;61;20375;-55
2023/01/10 10:42:18;0.00;0.00;0.62;0.00;0.00;0.62;1.97;1.17;;;21.80;27.00;;;;;;2253440;61;20503;-59
2023/01/10 10:45:07;0.00;0.00;0.62;0.00;0.00;0.62;2.40;1.30;;;21.80;27.00;;;;;;2253050;61;20370;-59
2023/01/10 10:48:09;0.00;0.00;0.62;0.00;0.00;0.62;2.03;1.33;;;21.80;27.00;;;;;;2252827;61;20452;-54
2023/01/10 10:51:11;0.00;0.00;0.62;0.00;0.00;0.62;4.80;1.93;;;21.90;27.00;;;;;;2253314;61;20362;-54
2023/01/10 10:53:57;0.00;0.00;0.62;0.00;0.00;0.62;2.30;1.10;;;21.80;26.90;;;;;;2252975;61;20783;-58
2023/01/10 10:56:43;0.00;0.00;0.62;0.00;0.00;0.62;1.93;1.03;;;21.90;26.90;;;;;;2253530;61;20421;-60
2023/01/10 10:59:28;0.00;0.00;0.62;0.00;0.00;0.62;1.70;1.03;;;21.90;26.90;;;;;;2253216;61;20375;-57
2023/01/10 11:02:24;0.00;0.00;0.62;0.00;0.00;0.62;2.20;1.07;;;21.90;26.90;;;;;;2253030;61;20387;-53
2023/01/10 11:05:18;0.00;0.00;0.62;0.00;0.00;0.62;3.10;1.20;;;21.90;26.90;;;;;;2253501;61;20355;-54
2023/01/10 11:08:12;0.00;0.00;0.62;0.00;0.00;0.62;2.30;1.43;;;21.90;26.90;;;;;;2253044;61;20362;-55